createdAt,value
2022-09-28T00:01:17.111Z,8.25
2022-09-28T00:03:46.226Z,7.97
2022-09-28T00:06:18.448Z,8.98
2022-09-28T00:08:45.877Z,8.57
2022-09-28T00:11:15.479Z,7.68
2022-09-28T00:13:43.946Z,8.70
2022-09-28T00:16:15.606Z,9.48
2022-09-28T00:18:43.708Z,9.90
2022-09-28T00:21:14.320Z,7.82
2022-09-28T00:24:01.296Z,10.05
2022-09-28T00:26:31.833Z,8.57
2022-09-28T00:29:02.091Z,9.75
2022-09-28T00:31:32.976Z,10.70
2022-09-28T00:34:02.518Z,8.93
2022-09-28T00:36:32.341Z,12.35
2022-09-28T00:39:05.881Z,8.95
2022-09-28T00:41:34.421Z,9.73
2022-09-28T00:44:41.928Z,9.70
2022-09-28T00:50:23.055Z,10.35
2022-09-28T00:53:02.366Z,9.23
2022-09-28T00:55:56.894Z,9.93
2022-09-28T00:58:32.754Z,11.55
2022-09-28T01:01:00.474Z,11.57
2022-09-28T01:03:29.291Z,11.68
2022-09-28T01:06:00.023Z,10.48
2022-09-28T01:08:29.764Z,11.98
2022-09-28T01:10:59.411Z,16.90
2022-09-28T01:13:28.456Z,11.55
2022-09-28T01:16:34.068Z,12.80
2022-09-28T01:19:47.290Z,12.30
2022-09-28T01:23:13.337Z,12.05
2022-09-28T01:25:54.257Z,11.25
2022-09-28T01:28:28.099Z,12.05
2022-09-28T01:31:14.039Z,13.20
2022-09-28T01:36:29.922Z,11.90
2022-09-28T01:39:06.200Z,13.80
2022-09-28T01:41:36.747Z,9.88
2022-09-28T01:44:07.733Z,11.52
2022-09-28T01:46:44.806Z,9.52
2022-09-28T01:49:34.722Z,10.88
2022-09-28T01:52:27.868Z,12.00
2022-09-28T01:55:14.204Z,11.65
2022-09-28T01:57:48.560Z,8.80
2022-09-28T02:00:18.481Z,11.60
2022-09-28T02:03:06.883Z,11.98
2022-09-28T02:05:54.289Z,12.10
2022-09-28T02:08:36.880Z,11.10
2022-09-28T02:11:15.161Z,11.13
2022-09-28T02:13:49.172Z,12.48
2022-09-28T02:16:35.597Z,12.75
2022-09-28T02:19:04.659Z,16.83
2022-09-28T02:21:46.456Z,11.02
2022-09-28T02:24:39.445Z,15.07
2022-09-28T02:27:31.823Z,16.38
2022-09-28T02:29:58.889Z,15.45
2022-09-28T02:32:28.283Z,12.82
2022-09-28T02:34:56.105Z,13.52
2022-09-28T02:37:23.193Z,10.90
2022-09-28T02:39:50.202Z,12.27
2022-09-28T02:43:02.457Z,14.15
2022-09-28T02:45:51.068Z,13.82
2022-09-28T02:49:10.463Z,15.15
2022-09-28T02:52:14.506Z,13.45
2022-09-28T02:55:20.446Z,15.93
2022-09-28T02:57:59.880Z,18.08
2022-09-28T03:00:27.992Z,20.55
2022-09-28T03:03:18.887Z,24.17
2022-09-28T03:06:19.519Z,27.00
2022-09-28T03:09:05.773Z,24.83
2022-09-28T03:11:52.199Z,19.83
2022-09-28T03:14:19.645Z,20.80
2022-09-28T03:16:52.216Z,25.88
2022-09-28T03:19:28.305Z,22.90
2022-09-28T03:21:55.668Z,24.00
2022-09-28T03:24:22.735Z,24.25
2022-09-28T03:26:50.530Z,27.27
2022-09-28T03:29:17.774Z,24.60
2022-09-28T03:31:49.057Z,26.05
2022-09-28T03:34:16.242Z,28.27
2022-09-28T03:36:43.263Z,29.33
2022-09-28T03:39:10.465Z,30.77
2022-09-28T03:41:38.993Z,39.72
2022-09-28T03:44:06.150Z,33.25
2022-09-28T03:46:34.149Z,34.70
2022-09-28T03:49:06.156Z,58.78
2022-09-28T03:51:33.097Z,47.17
2022-09-28T03:54:00.211Z,92.43
2022-09-28T03:56:27.338Z,256.08
2022-09-28T03:58:54.489Z,199.40
2022-09-28T04:01:21.587Z,62.30
2022-09-28T04:03:57.287Z,119.18
2022-09-28T04:06:26.043Z,71.93
2022-09-28T04:08:53.611Z,58.70
2022-09-28T04:11:20.829Z,61.42
2022-09-28T04:13:50.818Z,95.75
2022-09-28T04:16:18.971Z,136.07
2022-09-28T04:18:58.727Z,42.22
2022-09-28T04:21:44.938Z,62.20
2022-09-28T04:24:14.493Z,60.38
2022-09-28T04:26:41.720Z,57.25
2022-09-28T04:29:17.823Z,66.82
2022-09-28T04:32:05.912Z,75.60
2022-09-28T04:34:38.761Z,36.63
2022-09-28T04:37:09.153Z,41.53
2022-09-28T04:39:38.130Z,133.45
2022-09-28T04:42:06.473Z,97.57
2022-09-28T04:44:33.688Z,71.13
2022-09-28T04:47:06.592Z,85.93
2022-09-28T04:49:52.500Z,231.88
2022-09-28T04:52:27.222Z,132.73
2022-09-28T04:54:54.425Z,144.77
2022-09-28T04:57:21.896Z,76.30
2022-09-28T04:59:49.013Z,94.32
2022-09-28T05:02:17.039Z,155.52
2022-09-28T05:04:55.093Z,86.07
2022-09-28T05:07:59.046Z,139.05
2022-09-28T05:10:26.299Z,182.30
2022-09-28T05:12:53.477Z,140.55
2022-09-28T05:15:20.640Z,198.02
2022-09-28T05:17:48.668Z,306.63
2022-09-28T05:20:22.505Z,93.97
2022-09-28T05:22:49.482Z,143.63
2022-09-28T05:25:17.580Z,119.32
2022-09-28T05:31:09.386Z,70.00
2022-09-28T05:33:55.308Z,65.63
2022-09-28T05:36:23.890Z,94.70
2022-09-28T05:38:52.041Z,56.05
2022-09-28T05:41:19.136Z,162.25
2022-09-28T05:43:46.241Z,75.55
2022-09-28T05:46:13.408Z,151.88
2022-09-28T05:48:41.902Z,87.70
2022-09-28T05:51:10.146Z,50.15
2022-09-28T05:53:37.224Z,224.93
2022-09-28T05:56:05.162Z,48.75
2022-09-28T05:58:33.897Z,242.48
2022-09-28T06:01:01.330Z,74.13
2022-09-28T06:03:30.161Z,67.60
2022-09-28T06:06:00.522Z,47.97
2022-09-28T06:08:27.558Z,95.72
2022-09-28T06:11:12.495Z,87.75
2022-09-28T06:13:39.992Z,70.25
2022-09-28T06:16:08.508Z,38.13
2022-09-28T06:18:35.750Z,85.65
2022-09-28T06:21:25.719Z,93.43
2022-09-28T06:23:52.790Z,76.15
2022-09-28T06:26:20.845Z,98.30
2022-09-28T06:28:48.401Z,107.10
2022-09-28T06:31:19.064Z,84.13
2022-09-28T06:33:50.424Z,115.10
2022-09-28T06:36:20.779Z,65.70
2022-09-28T06:38:49.691Z,75.55
2022-09-28T06:41:17.417Z,70.93
2022-09-28T06:43:47.895Z,88.68
2022-09-28T06:46:33.529Z,67.20
2022-09-28T06:49:00.474Z,49.67
2022-09-28T06:52:02.774Z,57.15
2022-09-28T06:54:59.128Z,69.85
2022-09-28T06:57:43.213Z,48.47
2022-09-28T07:00:11.369Z,38.15
2022-09-28T07:02:38.526Z,71.45
2022-09-28T07:05:29.396Z,77.55
2022-09-28T07:08:20.659Z,46.85
2022-09-28T07:11:08.295Z,33.83
2022-09-28T07:13:51.948Z,132.45
2022-09-28T07:16:26.678Z,32.85
2022-09-28T07:18:55.565Z,40.40
2022-09-28T07:21:29.940Z,34.95
2022-09-28T07:24:06.064Z,21.15
2022-09-28T07:26:33.276Z,25.02
2022-09-28T07:29:13.887Z,27.02
2022-09-28T07:31:54.139Z,38.05
2022-09-28T07:34:48.671Z,40.75
2022-09-28T07:37:26.544Z,39.33
2022-09-28T07:40:12.947Z,26.55
2022-09-28T07:42:40.602Z,27.15
2022-09-28T07:45:08.575Z,17.77
2022-09-28T07:47:36.211Z,43.30
2022-09-28T07:50:22.432Z,26.30
2022-09-28T07:52:57.498Z,16.98
2022-09-28T07:55:29.806Z,14.77
2022-09-28T07:58:13.704Z,18.30
2022-09-28T08:01:15.506Z,13.40
2022-09-28T08:03:45.236Z,13.55
2022-09-28T08:06:17.055Z,17.23
2022-09-28T08:08:45.022Z,13.73
2022-09-28T08:11:17.758Z,13.20
2022-09-28T08:14:11.074Z,11.73
2022-09-28T08:16:55.925Z,11.40
2022-09-28T08:19:56.585Z,12.35
2022-09-28T08:22:23.721Z,13.43
2022-09-28T08:24:53.533Z,13.13
2022-09-28T08:27:20.508Z,12.50
2022-09-28T08:29:48.466Z,13.48
2022-09-28T08:32:38.217Z,14.65
2022-09-28T08:35:25.595Z,13.65
2022-09-28T08:38:21.904Z,13.98
2022-09-28T08:41:25.547Z,13.82
2022-09-28T08:44:51.713Z,15.77
2022-09-28T08:48:11.757Z,16.02
2022-09-28T08:51:06.184Z,14.73
2022-09-28T08:54:21.613Z,16.85
2022-09-28T08:57:21.177Z,16.48
2022-09-28T08:59:58.470Z,15.40
2022-09-28T09:02:34.171Z,15.07
2022-09-28T09:05:19.884Z,15.95
2022-09-28T09:08:22.372Z,15.23
2022-09-28T09:11:43.770Z,14.60
2022-09-28T09:14:49.175Z,14.13
2022-09-28T09:17:40.505Z,14.40
2022-09-28T09:21:16.820Z,14.93
2022-09-28T09:23:56.366Z,12.60
2022-09-28T09:26:39.480Z,14.75
2022-09-28T09:29:49.379Z,14.80
2022-09-28T09:33:04.728Z,14.25
2022-09-28T09:35:49.296Z,13.68
2022-09-28T09:38:43.494Z,13.40
2022-09-28T09:42:04.001Z,13.23
2022-09-28T09:45:03.647Z,13.95
2022-09-28T09:48:11.229Z,14.60
2022-09-28T09:51:00.294Z,11.05
2022-09-28T09:53:42.352Z,13.13
2022-09-28T09:56:25.564Z,14.07
2022-09-28T09:59:26.331Z,11.60
2022-09-28T10:02:29.205Z,13.07
2022-09-28T10:05:34.885Z,12.82
2022-09-28T10:08:09.548Z,15.15
2022-09-28T10:11:28.355Z,10.88
2022-09-28T10:13:56.882Z,10.82
2022-09-28T10:16:37.376Z,10.05
2022-09-28T10:19:13.203Z,9.25
2022-09-28T10:22:02.538Z,6.55
2022-09-28T10:24:34.328Z,6.63
2022-09-28T10:27:11.433Z,5.75
2022-09-28T10:30:08.192Z,6.78
2022-09-28T10:32:41.573Z,6.63
2022-09-28T10:35:20.482Z,5.57
2022-09-28T10:37:59.668Z,5.45
2022-09-28T10:40:51.876Z,5.82
2022-09-28T10:43:38.448Z,4.45
2022-09-28T10:46:13.555Z,4.18
2022-09-28T10:49:05.190Z,3.63
2022-09-28T10:51:46.830Z,4.35
2022-09-28T10:54:20.780Z,4.05
2022-09-28T10:56:53.013Z,5.63
2022-09-28T10:59:30.782Z,4.43
2022-09-28T11:02:38.150Z,4.90
2022-09-28T11:05:22.737Z,3.25
2022-09-28T11:07:52.662Z,4.40
2022-09-28T11:10:30.963Z,3.47
2022-09-28T11:13:08.787Z,3.47
2022-09-28T11:15:43.268Z,5.75
2022-09-28T11:18:32.305Z,3.78
2022-09-28T11:21:13.314Z,3.45
2022-09-28T11:24:19.026Z,3.33
2022-09-28T11:26:50.519Z,3.50
2022-09-28T11:29:46.076Z,3.58
2022-09-28T11:32:31.570Z,4.28
2022-09-28T11:36:18.697Z,4.38
2022-09-28T11:39:00.025Z,3.95
2022-09-28T11:42:28.702Z,3.30
2022-09-28T11:45:23.903Z,5.82
2022-09-28T11:48:13.340Z,5.78
2022-09-28T11:50:48.785Z,26.02
2022-09-28T11:53:21.964Z,4.15
2022-09-28T11:55:58.223Z,4.68
2022-09-28T11:58:34.729Z,5.07
2022-09-28T12:01:41.444Z,4.80
2022-09-28T12:04:25.389Z,3.60
2022-09-28T12:07:02.954Z,3.78
2022-09-28T12:09:43.338Z,4.15
2022-09-28T12:13:01.011Z,2.33
2022-09-28T12:16:07.431Z,2.60
2022-09-28T12:19:33.866Z,3.60
2022-09-28T12:22:09.828Z,2.25
2022-09-28T12:24:46.348Z,2.42
2022-09-28T12:27:25.227Z,2.38
2022-09-28T12:30:02.305Z,3.15
2022-09-28T12:32:56.274Z,3.17
2022-09-28T12:35:39.035Z,2.13
2022-09-28T12:38:40.995Z,3.05
2022-09-28T12:41:22.611Z,2.65
2022-09-28T12:44:03.985Z,1.65
2022-09-28T12:47:05.540Z,2.65
2022-09-28T12:50:33.692Z,2.53
2022-09-28T12:53:19.325Z,2.55
2022-09-28T12:56:01.179Z,1.85
2022-09-28T12:58:50.719Z,3.33
2022-09-28T13:01:45.762Z,4.22
2022-09-28T13:04:44.061Z,3.15
2022-09-28T13:07:55.281Z,1.50
2022-09-28T13:10:34.064Z,3.28
2022-09-28T13:13:16.103Z,3.42
2022-09-28T13:16:01.103Z,2.55
2022-09-28T13:19:11.377Z,3.17
2022-09-28T13:21:46.764Z,2.40
2022-09-28T13:24:33.382Z,0.93
2022-09-28T13:27:17.250Z,2.65
2022-09-28T13:29:44.738Z,2.75
2022-09-28T13:32:12.730Z,1.10
2022-09-28T13:34:40.150Z,1.83
2022-09-28T13:37:16.866Z,1.95
2022-09-28T13:39:51.956Z,2.42
2022-09-28T13:42:46.281Z,1.73
2022-09-28T13:45:25.167Z,3.20
2022-09-28T13:48:01.659Z,4.65
2022-09-28T13:51:10.038Z,1.05
2022-09-28T13:54:01.096Z,2.17
2022-09-28T13:56:44.772Z,2.47
2022-09-28T13:59:29.730Z,2.42
2022-09-28T14:02:30.258Z,1.85
2022-09-28T14:05:27.866Z,2.20
2022-09-28T14:08:46.349Z,10.98
2022-09-28T14:11:34.235Z,9.70
2022-09-28T14:14:14.221Z,4.45
2022-09-28T14:16:42.441Z,3.17
2022-09-28T14:19:24.181Z,2.60
2022-09-28T14:22:13.293Z,2.13
2022-09-28T14:25:10.891Z,2.42
2022-09-28T14:28:15.384Z,3.70
2022-09-28T14:30:42.696Z,2.78
2022-09-28T14:33:20.676Z,3.17
2022-09-28T14:35:50.450Z,3.20
2022-09-28T14:38:44.845Z,2.60
2022-09-28T14:41:35.224Z,3.40
2022-09-28T14:44:10.233Z,3.60
2022-09-28T14:46:48.078Z,2.88
2022-09-28T14:49:18.392Z,3.03
2022-09-28T14:51:48.444Z,3.85
2022-09-28T14:54:20.629Z,1.98
2022-09-28T14:56:53.926Z,1.40
2022-09-28T14:59:38.886Z,2.30
2022-09-28T15:02:17.415Z,4.38
2022-09-28T15:04:51.971Z,3.75
2022-09-28T15:07:50.594Z,3.35
2022-09-28T15:10:40.354Z,3.65
2022-09-28T15:13:24.996Z,4.03
2022-09-28T15:16:09.717Z,2.13
2022-09-28T15:19:01.448Z,2.00
2022-09-28T15:21:38.027Z,2.35
2022-09-28T15:24:31.794Z,1.70
2022-09-28T15:27:01.782Z,3.28
2022-09-28T15:29:33.276Z,3.65
2022-09-28T15:32:00.574Z,2.63
2022-09-28T15:34:52.922Z,1.60
2022-09-28T15:37:28.024Z,2.33
2022-09-28T15:39:57.881Z,3.00
2022-09-28T15:42:25.606Z,1.70
2022-09-28T15:45:26.754Z,2.42
2022-09-28T15:48:34.248Z,2.00
2022-09-28T15:51:10.830Z,4.30
2022-09-28T15:54:04.716Z,3.50
2022-09-28T15:56:32.245Z,5.88
2022-09-28T15:59:39.297Z,7.25
2022-09-28T16:02:18.304Z,8.27
2022-09-28T16:05:01.166Z,4.53
2022-09-28T16:07:35.203Z,2.97
2022-09-28T16:10:13.011Z,2.70
2022-09-28T16:13:06.671Z,4.15
2022-09-28T16:15:36.142Z,1.85
2022-09-28T16:18:20.665Z,4.18
2022-09-28T16:20:51.789Z,2.40
2022-09-28T16:23:33.049Z,2.75
2022-09-28T16:26:10.461Z,3.88
2022-09-28T16:28:41.216Z,3.08
2022-09-28T16:31:32.480Z,2.10
2022-09-28T16:34:19.976Z,2.67
2022-09-28T16:36:49.301Z,2.30
2022-09-28T16:39:18.815Z,2.75
2022-09-28T16:41:53.833Z,3.50
2022-09-28T16:44:32.677Z,2.55
2022-09-28T16:47:00.820Z,1.85
2022-09-28T16:49:31.542Z,4.25
2022-09-28T16:51:59.494Z,2.75
2022-09-28T16:54:45.088Z,3.22
2022-09-28T16:57:14.908Z,4.17
2022-09-28T16:59:41.999Z,2.47
2022-09-28T17:05:15.893Z,5.43
2022-09-28T17:07:44.276Z,4.00
2022-09-28T17:10:19.159Z,3.22
2022-09-28T17:12:46.223Z,2.40
2022-09-28T17:15:15.605Z,4.07
2022-09-28T17:17:42.590Z,2.58
2022-09-28T17:20:26.788Z,2.03
2022-09-28T17:22:54.089Z,4.90
2022-09-28T17:25:23.879Z,4.18
2022-09-28T17:27:51.915Z,3.53
2022-09-28T17:30:23.510Z,3.40
2022-09-28T17:32:52.772Z,3.50
2022-09-28T17:35:25.093Z,5.95
2022-09-28T17:37:52.717Z,7.75
2022-09-28T17:40:28.119Z,3.67
2022-09-28T17:42:59.732Z,3.75
2022-09-28T17:45:28.362Z,4.28
2022-09-28T17:47:55.915Z,4.68
2022-09-28T17:50:32.421Z,4.03
2022-09-28T17:53:02.839Z,2.55
2022-09-28T17:55:32.085Z,4.20
2022-09-28T17:58:23.092Z,5.53
2022-09-28T18:00:51.504Z,3.60
2022-09-28T18:03:22.620Z,3.78
2022-09-28T18:06:10.812Z,3.78
2022-09-28T18:08:41.530Z,4.75
2022-09-28T18:11:08.725Z,3.60
2022-09-28T18:13:35.713Z,3.67
2022-09-28T18:16:04.079Z,3.08
2022-09-28T18:18:33.313Z,3.55
2022-09-28T18:21:00.967Z,2.75
2022-09-28T18:23:27.916Z,4.05
2022-09-28T18:25:55.009Z,3.05
2022-09-28T18:28:23.019Z,2.70
2022-09-28T18:30:50.138Z,4.13
2022-09-28T18:33:17.147Z,4.18
2022-09-28T18:35:54.569Z,5.45
2022-09-28T18:38:21.688Z,3.95
2022-09-28T18:40:48.877Z,5.40
2022-09-28T18:43:16.631Z,5.72
2022-09-28T18:45:43.611Z,5.60
2022-09-28T18:48:10.637Z,7.35
2022-09-28T18:50:37.854Z,8.68
2022-09-28T18:53:13.737Z,7.22
2022-09-28T18:55:42.773Z,6.97
2022-09-28T18:58:11.499Z,7.32
2022-09-28T19:00:41.377Z,5.72
2022-09-28T19:03:11.295Z,7.80
2022-09-28T19:05:43.849Z,6.40
2022-09-28T19:08:10.835Z,6.03
2022-09-28T19:10:37.964Z,6.20
2022-09-28T19:13:05.101Z,6.45
2022-09-28T19:15:32.965Z,6.47
2022-09-28T19:18:00.108Z,4.72
2022-09-28T19:20:27.069Z,4.70
2022-09-28T19:22:54.053Z,4.65
2022-09-28T19:25:21.007Z,6.10
2022-09-28T19:27:48.724Z,5.25
2022-09-28T19:30:15.697Z,3.72
2022-09-28T19:32:42.821Z,5.65
2022-09-28T19:35:09.886Z,3.78
2022-09-28T19:37:39.305Z,4.93
2022-09-28T19:40:07.716Z,3.67
2022-09-28T19:42:36.160Z,3.40
2022-09-28T19:45:03.396Z,3.60
2022-09-28T19:47:31.796Z,3.58
2022-09-28T19:49:58.851Z,3.55
2022-09-28T19:52:25.933Z,5.43
2022-09-28T19:55:00.146Z,4.30
2022-09-28T19:57:32.493Z,3.63
2022-09-28T20:00:03.231Z,4.28
2022-09-28T20:02:34.788Z,3.83
2022-09-28T20:05:02.342Z,5.90
2022-09-28T20:07:32.757Z,4.28
2022-09-28T20:10:00.029Z,4.18
2022-09-28T20:12:27.155Z,4.18
2022-09-28T20:14:54.250Z,4.63
2022-09-28T20:17:21.724Z,7.63
2022-09-28T20:19:51.619Z,5.40
2022-09-28T20:22:19.885Z,6.20
2022-09-28T20:24:46.839Z,6.88
2022-09-28T20:27:14.039Z,5.70
2022-09-28T20:29:43.001Z,6.95
2022-09-28T20:32:11.510Z,6.80
2022-09-28T20:34:38.532Z,6.65
2022-09-28T20:37:05.615Z,6.03
2022-09-28T20:39:32.660Z,7.68
2022-09-28T20:41:59.845Z,6.78
2022-09-28T20:44:26.986Z,4.85
2022-09-28T20:46:53.990Z,6.70
2022-09-28T20:49:21.286Z,6.18
2022-09-28T20:51:48.391Z,6.93
2022-09-28T20:54:15.526Z,8.00
2022-09-28T20:56:42.493Z,8.13
2022-09-28T20:59:12.200Z,7.72
2022-09-28T21:01:40.309Z,8.70
2022-09-28T21:04:09.662Z,9.45
2022-09-28T21:06:40.346Z,8.07
2022-09-28T21:09:09.217Z,8.35
2022-09-28T21:11:36.827Z,9.18
2022-09-28T21:14:06.317Z,10.90
2022-09-28T21:16:35.091Z,10.75
2022-09-28T21:19:03.149Z,8.65
2022-09-28T21:21:30.187Z,7.60
2022-09-28T21:23:59.340Z,10.02
2022-09-28T21:26:29.095Z,10.88
2022-09-28T21:29:01.777Z,9.82
2022-09-28T21:31:47.421Z,7.97
2022-09-28T21:34:19.921Z,5.77
2022-09-28T21:36:51.013Z,10.15
2022-09-28T21:39:18.833Z,7.07
2022-09-28T21:41:46.191Z,8.30
2022-09-28T21:44:13.233Z,7.38
2022-09-28T21:46:40.357Z,6.03
2022-09-28T21:49:09.899Z,6.45
2022-09-28T21:51:37.982Z,7.03
2022-09-28T21:54:05.316Z,10.10
2022-09-28T21:56:32.448Z,6.60
2022-09-28T21:59:01.155Z,7.05
2022-09-28T22:01:29.284Z,6.45
2022-09-28T22:03:57.236Z,6.00
2022-09-28T22:06:30.143Z,5.57
2022-09-28T22:08:58.907Z,6.60
2022-09-28T22:11:28.619Z,5.75
2022-09-28T22:14:00.292Z,6.03
2022-09-28T22:16:31.609Z,5.75
2022-09-28T22:18:59.740Z,6.15
2022-09-28T22:21:32.661Z,6.38
2022-09-28T22:24:01.465Z,7.13
2022-09-28T22:26:31.608Z,6.72
2022-09-28T22:29:09.908Z,6.35
2022-09-28T22:31:40.297Z,6.80
2022-09-28T22:34:07.928Z,5.07
2022-09-28T22:36:35.088Z,6.70
2022-09-28T22:39:02.405Z,5.60
2022-09-28T22:41:30.072Z,6.15
2022-09-28T22:43:57.409Z,5.65
2022-09-28T22:46:27.937Z,5.07
2022-09-28T22:48:59.651Z,5.63
2022-09-28T22:51:28.899Z,6.00
2022-09-28T22:53:56.694Z,4.90
2022-09-28T22:56:24.529Z,5.35
2022-09-28T22:58:51.678Z,7.10
2022-09-28T23:01:28.511Z,5.60
2022-09-28T23:03:57.724Z,8.88
2022-09-28T23:06:28.275Z,6.65
2022-09-28T23:08:55.464Z,7.45
2022-09-28T23:11:22.721Z,6.53
2022-09-28T23:13:55.389Z,5.68
2022-09-28T23:16:25.398Z,6.57
2022-09-28T23:18:54.516Z,7.03
2022-09-28T23:21:25.312Z,5.07
2022-09-28T23:23:58.589Z,5.47
2022-09-28T23:26:30.581Z,7.43
2022-09-28T23:28:58.270Z,4.82
2022-09-28T23:31:29.318Z,5.32
2022-09-28T23:34:05.819Z,6.25
2022-09-28T23:36:34.061Z,6.05
2022-09-28T23:39:01.689Z,6.38
2022-09-28T23:41:29.109Z,5.75
2022-09-28T23:43:56.351Z,5.47
2022-09-28T23:46:23.920Z,5.85
2022-09-28T23:48:51.339Z,6.35
2022-09-28T23:51:18.487Z,4.95
2022-09-28T23:53:46.058Z,5.10
2022-09-28T23:56:14.498Z,6.28
2022-09-28T23:58:41.911Z,5.72
